Hauptseite
METAR-TAF:

METAR-TAF

Flughäfen :

Zagreb, Kroatien

Flughafen Zagreb

Breite: 45-44N, Länge: 016-04E, Höhe: 106 m

Beobachtung

Neuester Wetterbericht von vor 12 Minuten, um 12:00 UTC
Wind 3 kt aus unterschiedlichen Richtungen
Temperatur 33°C
Luftfeuchtigkeit 34%
Luftdruck 1015 hPa
Sichtweite 10 km oder mehr
keine Wolken unter 1500 m und keine Kumulonimbus oder Gewitterwolken

METAR: LDZA 221200Z VRB03KT CAVOK 33/15 Q1015 NOSIG

Zeit: 14:12 (12:12 UTC)

Prognose

Neuester Wetterbericht von vor 47 Minuten, um 11:25 UTC
Gültige Prognose vom 22 um 12 UTC bis 23 um 12 UTC
Wind 6 kt aus Südwest
Sichtweite 10 km oder mehr
keine Wolken unter 1500 m und keine Kumulonimbus oder Gewitterwolken
Zeitweise
vom 23 um 06 UTC bis 23 um 12 UTC
Wind 10 kt aus Südwest

TAF: LDZA 221125Z 2212/2312 23006KT CAVOK TX34/2214Z TN20/2303Z TEMPO 2306/2312 23010KT

Wetterbeobachtungen und Prognosen von mehr als 4000 Flughäfen (METAR und TAF Bericht).

Die verfügbaren Stationen werden durch gelbe und rote Markierungen auf der Karte dargestellt.

Führen Sie die Maus auf sie, um den Namen der Station zu sehen.

Darauf klicken, um die Beobachtung von Wetterbeobachtungen und Prognosen zu sehen.

Um die Karte zu ändern : klicken Sie auf den grünen Tasten mit einem schwarzen Kreuz Zum Vergrößern, auf den grünen Button mit einem Gedankenstrich zu verkleinern, oder auf die grünen Pfeile für benachbarte Karten.


METAR-TAF: